Time;durP1;ratioP1;P1;durP2;ratioP2;P2;SDS_P1;SDS_P2;PMS_P1;PMS_P2;Temp;Humidity;BMP_temperature;BMP_pressure;BME280_temperature;BME280_humidity;BME280_pressure;Samples;Min_cycle;Max_cycle;Signal;HPM_P1;HPM_P2
2022/05/19 00:01:01;;;;;;;3.67;1.50;;;17.80;75.00;;;;;;5052571;28;20510;-69
2022/05/19 00:04:00;;;;;;;5.10;1.80;;;17.80;77.20;;;;;;5052539;28;20406;-69
2022/05/19 00:07:05;;;;;;;2.60;1.60;;;17.60;78.10;;;;;;5051794;28;20055;-69
2022/05/19 00:10:09;;;;;;;2.28;1.58;;;17.60;76.90;;;;;;5051961;28;20100;-70
2022/05/19 00:13:13;;;;;;;4.32;1.90;;;17.80;76.60;;;;;;5051566;28;20052;-70
2022/05/19 00:16:18;;;;;;;6.43;1.98;;;17.60;77.60;;;;;;5051621;28;20494;-69
2022/05/19 00:19:22;;;;;;;4.72;1.73;;;17.40;78.00;;;;;;5051819;28;20056;-70
2022/05/19 00:22:26;;;;;;;5.68;1.70;;;17.30;78.20;;;;;;5051764;28;20112;-70
2022/05/19 00:25:30;;;;;;;3.33;2.00;;;17.20;78.30;;;;;;5051925;28;20499;-69
2022/05/19 00:28:35;;;;;;;4.25;2.10;;;17.10;79.30;;;;;;5051642;28;20060;-70
2022/05/19 00:31:39;;;;;;;5.78;1.48;;;17.30;78.20;;;;;;5051683;28;20060;-70
2022/05/19 00:34:44;;;;;;;3.42;1.92;;;17.30;79.00;;;;;;5051815;28;20408;-70
2022/05/19 00:37:48;;;;;;;2.90;1.75;;;17.20;77.70;;;;;;5051438;28;20044;-69
2022/05/19 00:40:54;;;;;;;4.93;1.70;;;17.40;78.10;;;;;;5051380;28;20040;-69
2022/05/19 00:44:04;;;;;;;6.00;2.20;;;17.30;78.00;;;;;;5051552;28;20073;-71
2022/05/19 00:47:21;;;;;;;7.40;2.10;;;17.10;79.20;;;;;;5051253;28;20036;-70
2022/05/19 00:50:31;;;;;;;3.65;1.83;;;16.90;79.00;;;;;;5051632;28;20044;-69
2022/05/19 00:53:48;;;;;;;6.05;1.90;;;17.00;79.00;;;;;;5051630;28;20044;-69
2022/05/19 00:57:04;;;;;;;4.65;2.20;;;16.90;79.10;;;;;;5050906;28;20044;-70
2022/05/19 01:00:13;;;;;;;5.07;1.70;;;17.00;80.10;;;;;;5051047;28;20047;-69
2022/05/19 01:03:19;;;;;;;4.22;1.80;;;16.80;79.70;;;;;;5051541;28;20048;-69
2022/05/19 01:06:25;;;;;;;6.32;2.10;;;16.90;80.50;;;;;;5050775;28;20064;-69
2022/05/19 01:09:34;;;;;;;9.15;2.10;;;16.60;80.60;;;;;;5051340;28;20387;-70
2022/05/19 01:12:43;;;;;;;3.42;1.60;;;16.50;81.20;;;;;;5051255;28;20044;-69
2022/05/19 01:15:52;;;;;;;4.68;1.80;;;16.40;81.40;;;;;;5050984;28;20051;-69
2022/05/19 01:19:00;;;;;;;3.60;1.70;;;16.40;80.60;;;;;;5050653;28;20048;-69
2022/05/19 01:22:15;;;;;;;3.38;1.88;;;16.40;80.60;;;;;;5050563;28;20062;-69
2022/05/19 01:25:43;;;;;;;6.20;2.08;;;16.40;81.70;;;;;;5051088;28;20044;-70
2022/05/19 01:28:48;;;;;;;4.78;1.88;;;16.30;80.90;;;;;;5051084;28;20052;-69
2022/05/19 01:31:56;;;;;;;4.75;1.80;;;16.30;80.80;;;;;;5051051;28;20056;-69
2022/05/19 01:35:00;;;;;;;4.20;1.85;;;16.40;81.40;;;;;;5050638;28;20040;-69
2022/05/19 01:38:13;;;;;;;8.23;1.90;;;16.30;81.10;;;;;;5050598;28;20048;-69
2022/05/19 01:41:47;;;;;;;2.25;1.60;;;16.20;80.80;;;;;;5038041;28;20040;-69
2022/05/19 01:45:28;;;;;;;6.07;1.70;;;16.20;80.90;;;;;;5050767;28;20044;-70
2022/05/19 01:48:42;;;;;;;5.45;1.83;;;16.20;81.20;;;;;;5050893;28;20064;-69
2022/05/19 01:51:56;;;;;;;4.50;1.58;;;16.00;81.10;;;;;;5051018;28;20048;-69
2022/05/19 01:55:18;;;;;;;4.47;1.70;;;15.90;83.10;;;;;;5050971;28;20044;-69
2022/05/19 01:58:43;;;;;;;2.60;1.80;;;15.80;83.00;;;;;;5054441;28;20044;-69
2022/05/19 02:02:00;;;;;;;4.50;1.90;;;15.80;81.90;;;;;;5054311;28;20040;-69
2022/05/19 02:05:07;;;;;;;4.00;2.00;;;15.80;81.70;;;;;;5054711;28;20387;-70
2022/05/19 02:08:15;;;;;;;3.80;2.33;;;15.80;82.90;;;;;;5054548;28;20668;-69
2022/05/19 02:11:26;;;;;;;2.70;2.15;;;15.70;82.50;;;;;;5054578;28;20271;-70
2022/05/19 02:14:36;;;;;;;5.18;1.60;;;15.70;83.10;;;;;;5054778;28;20051;-69
2022/05/19 02:17:43;;;;;;;3.15;1.60;;;15.70;82.20;;;;;;5053926;28;20040;-69
2022/05/19 02:20:49;;;;;;;4.10;1.80;;;15.70;82.30;;;;;;5054241;28;20072;-70
2022/05/19 02:23:56;;;;;;;7.28;1.80;;;15.70;82.90;;;;;;5054702;28;20048;-70
2022/05/19 02:27:44;;;;;;;4.82;1.70;;;15.60;83.10;;;;;;5053928;28;20049;-69
2022/05/19 02:30:49;;;;;;;5.53;1.95;;;15.40;83.60;;;;;;4980241;28;20437;-69
2022/05/19 02:33:53;;;;;;;2.35;1.80;;;15.40;83.60;;;;;;5053945;28;20040;-69
2022/05/19 02:36:56;;;;;;;4.07;1.80;;;15.40;83.30;;;;;;5053937;28;20052;-70
2022/05/19 02:40:01;;;;;;;3.63;1.75;;;15.40;82.50;;;;;;5053480;28;20044;-69
2022/05/19 02:43:06;;;;;;;6.85;2.47;;;15.40;82.30;;;;;;5054021;28;20295;-70
2022/05/19 02:46:10;;;;;;;3.90;2.10;;;15.50;82.60;;;;;;5053646;28;20047;-70
2022/05/19 02:49:14;;;;;;;6.25;1.67;;;15.40;83.60;;;;;;5053706;28;20040;-70
2022/05/19 02:52:18;;;;;;;7.93;3.65;;;15.40;83.10;;;;;;5053470;28;20040;-69
2022/05/19 02:55:23;;;;;;;4.05;1.60;;;15.40;83.40;;;;;;5053731;28;20044;-70
2022/05/19 02:58:27;;;;;;;12.25;1.98;;;15.40;82.70;;;;;;5053334;28;20361;-69
2022/05/19 03:01:30;;;;;;;7.38;2.17;;;15.30;83.30;;;;;;5053625;28;20044;-70
2022/05/19 03:04:35;;;;;;;3.70;1.63;;;15.40;83.50;;;;;;5053529;28;20056;-70
2022/05/19 03:07:39;;;;;;;2.78;1.70;;;15.30;83.70;;;;;;5051753;28;20048;-69
2022/05/19 03:10:44;;;;;;;3.28;1.42;;;15.30;83.50;;;;;;5053586;28;20052;-69
2022/05/19 03:13:48;;;;;;;9.60;1.73;;;15.30;82.20;;;;;;5053772;28;20502;-70
2022/05/19 03:16:52;;;;;;;3.65;2.45;;;15.30;84.30;;;;;;5053087;28;20051;-69
2022/05/19 03:19:56;;;;;;;4.00;1.92;;;15.20;84.60;;;;;;5053565;28;20502;-69
2022/05/19 03:23:00;;;;;;;6.55;2.03;;;15.10;84.70;;;;;;5053444;28;20047;-70
2022/05/19 03:26:04;;;;;;;4.38;1.80;;;15.00;85.20;;;;;;5052967;28;20040;-69
2022/05/19 03:29:09;;;;;;;4.53;1.90;;;14.90;86.90;;;;;;5053254;28;20056;-69
2022/05/19 03:32:14;;;;;;;8.50;1.83;;;14.70;85.80;;;;;;5053375;28;20052;-70
2022/05/19 03:35:19;;;;;;;6.20;2.33;;;14.60;86.20;;;;;;5053220;28;20047;-71
2022/05/19 03:38:23;;;;;;;3.75;1.65;;;14.60;86.40;;;;;;5052836;28;20499;-70
2022/05/19 03:41:27;;;;;;;7.28;2.33;;;14.50;87.30;;;;;;5052941;28;20052;-69
2022/05/19 03:44:31;;;;;;;3.90;1.80;;;14.50;85.90;;;;;;5053210;28;20048;-70
2022/05/19 03:47:35;;;;;;;5.03;1.90;;;14.50;87.10;;;;;;5052827;28;20056;-69
2022/05/19 03:50:42;;;;;;;5.57;2.45;;;14.60;85.20;;;;;;5052309;28;20514;-70
2022/05/19 03:53:46;;;;;;;7.47;2.08;;;14.70;86.00;;;;;;5052556;28;20048;-70
2022/05/19 03:56:50;;;;;;;5.55;1.95;;;14.70;86.80;;;;;;5052445;28;20056;-70
2022/05/19 03:59:54;;;;;;;2.95;1.65;;;14.60;86.80;;;;;;5052119;28;20392;-70
2022/05/19 04:02:59;;;;;;;2.80;1.60;;;14.50;87.00;;;;;;5052410;28;20032;-69
2022/05/19 04:06:03;;;;;;;6.00;1.90;;;14.60;85.90;;;;;;5051638;28;20499;-70
2022/05/19 04:09:09;;;;;;;6.28;2.85;;;14.60;86.00;;;;;;5052418;28;20534;-70
2022/05/19 04:12:14;;;;;;;5.75;1.90;;;14.60;86.00;;;;;;5052588;28;20048;-69
2022/05/19 04:15:19;;;;;;;9.57;2.90;;;14.60;86.20;;;;;;5052413;28;20595;-70
2022/05/19 04:18:24;;;;;;;5.40;1.98;;;14.60;86.40;;;;;;5051385;28;20392;-69
2022/05/19 04:21:28;;;;;;;10.68;2.95;;;14.70;86.20;;;;;;5052333;28;20055;-70
2022/05/19 04:24:32;;;;;;;9.23;2.90;;;14.80;86.40;;;;;;5052192;28;20036;-70
2022/05/19 04:27:36;;;;;;;6.35;2.05;;;14.80;86.50;;;;;;5051155;28;20406;-69
2022/05/19 04:30:44;;;;;;;9.27;2.40;;;14.90;84.60;;;;;;5052351;28;20052;-71
2022/05/19 04:33:49;;;;;;;5.93;2.13;;;14.90;84.90;;;;;;5051649;28;20032;-70
2022/05/19 04:36:53;;;;;;;18.85;4.43;;;15.00;86.10;;;;;;5051407;28;20044;-70
2022/05/19 04:40:01;;;;;;;7.40;2.08;;;15.10;86.20;;;;;;5051253;28;20044;-69
2022/05/19 04:43:06;;;;;;;5.63;2.17;;;16.60;84.80;;;;;;5051785;28;20052;-70
2022/05/19 04:46:10;;;;;;;7.47;2.10;;;19.50;80.80;;;;;;5051413;28;20036;-70
2022/05/19 04:49:14;;;;;;;9.13;2.80;;;21.90;75.90;;;;;;5051729;28;20502;-71
2022/05/19 04:52:20;;;;;;;9.05;2.97;;;23.80;72.30;;;;;;5051221;28;20402;-70
2022/05/19 04:55:26;;;;;;;11.35;3.58;;;24.90;70.00;;;;;;5051523;28;20053;-70
2022/05/19 04:58:30;;;;;;;6.55;2.10;;;25.90;68.80;;;;;;5051001;28;20404;-70
2022/05/19 05:01:33;;;;;;;19.95;4.78;;;26.70;67.80;;;;;;5051170;28;20048;-70
2022/05/19 05:04:38;;;;;;;14.27;2.95;;;27.40;67.30;;;;;;5051639;28;20043;-70
2022/05/19 05:07:42;;;;;;;7.32;2.33;;;28.10;66.60;;;;;;5050955;28;20048;-70
2022/05/19 05:10:46;;;;;;;13.98;2.75;;;28.50;65.00;;;;;;5051396;28;20047;-70
2022/05/19 05:13:50;;;;;;;5.72;2.40;;;29.00;65.00;;;;;;5051343;28;20040;-70
2022/05/19 05:16:55;;;;;;;18.40;3.63;;;29.60;63.60;;;;;;5051202;28;20048;-70
2022/05/19 05:19:59;;;;;;;31.05;5.60;;;30.30;64.30;;;;;;5051167;28;20051;-70
2022/05/19 05:23:03;;;;;;;39.75;6.13;;;30.40;63.70;;;;;;5051367;28;20048;-71
2022/05/19 05:26:09;;;;;;;21.60;3.05;;;30.40;64.70;;;;;;5051108;28;20043;-70
2022/05/19 05:29:13;;;;;;;6.85;2.92;;;30.70;64.50;;;;;;5051028;28;20047;-70
2022/05/19 05:32:17;;;;;;;5.07;1.70;;;31.20;64.00;;;;;;5050490;28;20040;-70
2022/05/19 05:35:22;;;;;;;5.18;1.70;;;31.80;62.90;;;;;;5051306;28;20044;-70
2022/05/19 05:38:28;;;;;;;8.80;1.95;;;31.80;65.60;;;;;;5050472;28;20053;-70
2022/05/19 05:41:33;;;;;;;6.50;1.98;;;31.90;62.50;;;;;;5050838;28;20052;-70
2022/05/19 05:44:38;;;;;;;6.22;1.63;;;31.50;62.70;;;;;;5050490;28;20056;-70
2022/05/19 05:47:41;;;;;;;3.38;1.58;;;31.40;60.70;;;;;;5050750;28;20047;-70
2022/05/19 05:50:46;;;;;;;3.90;1.60;;;31.40;61.20;;;;;;5050601;28;20052;-70
2022/05/19 05:53:50;;;;;;;2.65;1.50;;;30.60;59.20;;;;;;5050873;28;20117;-70
2022/05/19 05:56:54;;;;;;;3.30;2.00;;;30.30;60.80;;;;;;5049809;28;20428;-70
2022/05/19 05:59:59;;;;;;;6.05;1.63;;;29.30;61.10;;;;;;5038310;28;20051;-70
2022/05/19 06:03:04;;;;;;;4.13;1.50;;;30.20;61.50;;;;;;5050245;28;20523;-70
2022/05/19 06:06:08;;;;;;;5.95;1.63;;;26.80;59.60;;;;;;5050884;28;20043;-70
2022/05/19 06:09:13;;;;;;;4.05;1.50;;;27.00;62.10;;;;;;5050514;28;20056;-70
2022/05/19 06:12:18;;;;;;;3.13;1.63;;;26.40;61.40;;;;;;5050131;28;20427;-70
2022/05/19 06:15:23;;;;;;;3.80;1.38;;;27.40;61.80;;;;;;5050837;28;20047;-70
2022/05/19 06:18:27;;;;;;;2.88;1.30;;;27.30;60.70;;;;;;5050362;28;20048;-70
2022/05/19 06:21:36;;;;;;;6.00;1.50;;;27.00;62.40;;;;;;5050010;28;20036;-70
2022/05/19 06:24:41;;;;;;;4.35;1.30;;;27.90;61.30;;;;;;5049360;28;20048;-70
2022/05/19 06:27:49;;;;;;;1.95;1.20;;;28.40;60.10;;;;;;5047510;28;20048;-70
2022/05/19 06:30:53;;;;;;;6.65;1.38;;;29.10;60.00;;;;;;5036715;28;20048;-70
2022/05/19 06:33:59;;;;;;;8.20;1.70;;;28.90;59.90;;;;;;5029389;28;20035;-70
2022/05/19 06:37:04;;;;;;;4.50;1.38;;;29.80;60.50;;;;;;5047629;28;20055;-71
2022/05/19 06:40:09;;;;;;;5.18;1.38;;;30.20;59.80;;;;;;5034258;28;20041;-70
2022/05/19 06:43:14;;;;;;;3.90;1.50;;;30.40;61.30;;;;;;5042673;28;20036;-70
2022/05/19 06:46:19;;;;;;;4.45;1.45;;;31.30;60.30;;;;;;5046941;28;20141;-71
2022/05/19 06:49:23;;;;;;;4.90;1.70;;;31.40;60.20;;;;;;5048156;28;20056;-71
2022/05/19 06:52:30;;;;;;;5.10;1.60;;;32.00;58.90;;;;;;5049316;28;20036;-71
2022/05/19 06:55:36;;;;;;;3.75;1.30;;;32.60;58.20;;;;;;5047858;28;20044;-71
2022/05/19 06:58:39;;;;;;;4.60;1.63;;;32.70;58.40;;;;;;5033071;28;20049;-72
2022/05/19 07:01:45;;;;;;;6.47;1.45;;;33.00;58.80;;;;;;5046323;28;20487;-71
2022/05/19 07:04:49;;;;;;;5.15;1.67;;;33.30;58.10;;;;;;5049240;28;20052;-71
2022/05/19 07:07:54;;;;;;;8.30;1.50;;;33.60;57.60;;;;;;5051432;28;20059;-71
2022/05/19 07:11:01;;;;;;;8.73;1.50;;;33.60;57.80;;;;;;5056092;28;20052;-71
2022/05/19 07:14:06;;;;;;;3.58;1.45;;;34.10;57.60;;;;;;5049293;28;20048;-71
2022/05/19 07:17:11;;;;;;;3.85;1.55;;;34.00;57.60;;;;;;5047638;28;20048;-71
2022/05/19 07:23:38;;;;;;;4.53;1.42;;;33.50;58.20;;;;;;5049730;28;20044;-71
2022/05/19 07:26:48;;;;;;;6.65;2.00;;;33.70;57.80;;;;;;5037408;28;20125;-71
2022/05/19 07:29:51;;;;;;;4.05;1.17;;;32.30;57.40;;;;;;5048391;28;20041;-72
2022/05/19 07:32:56;;;;;;;3.95;1.20;;;31.80;58.40;;;;;;5048889;28;20048;-71
2022/05/19 07:36:00;;;;;;;5.90;1.67;;;32.50;58.00;;;;;;5049865;28;20685;-70
2022/05/19 07:39:06;;;;;;;6.75;1.38;;;31.70;59.30;;;;;;5049651;28;20048;-71
2022/05/19 07:42:10;;;;;;;7.70;2.13;;;32.90;57.20;;;;;;5040573;28;20039;-70
2022/05/19 07:45:15;;;;;;;5.13;1.52;;;30.60;59.20;;;;;;5057839;28;20500;-71
2022/05/19 07:48:20;;;;;;;5.15;1.55;;;32.50;58.80;;;;;;5049744;28;20051;-71
2022/05/19 07:51:27;;;;;;;3.85;1.55;;;33.90;57.50;;;;;;5057185;28;20526;-72
2022/05/19 07:54:31;;;;;;;2.38;1.30;;;34.70;57.90;;;;;;5046668;28;20656;-72
2022/05/19 07:57:36;;;;;;;4.30;1.15;;;35.00;56.90;;;;;;5054874;28;20059;-71
2022/05/19 08:00:40;;;;;;;6.22;1.48;;;35.90;56.80;;;;;;5050113;28;20052;-72
2022/05/19 08:03:44;;;;;;;2.63;1.10;;;37.10;55.90;;;;;;5049788;28;20036;-72
2022/05/19 08:06:49;;;;;;;7.35;1.40;;;37.60;54.90;;;;;;5047908;28;20505;-73
2022/05/19 08:16:41;;;;;;;3.40;1.33;;;33.90;56.80;;;;;;5049249;28;20495;-73
2022/05/19 08:19:47;;;;;;;3.70;1.63;;;31.30;56.20;;;;;;5055387;28;20051;-71
2022/05/19 08:22:52;;;;;;;3.72;1.50;;;32.10;57.20;;;;;;5055646;28;20047;-72
2022/05/19 08:25:57;;;;;;;7.45;1.50;;;33.70;56.30;;;;;;5041905;28;20044;-72
2022/05/19 08:29:02;;;;;;;2.33;1.20;;;35.10;55.20;;;;;;5042701;28;20043;-71
2022/05/19 08:32:07;;;;;;;1.70;1.00;;;34.10;55.00;;;;;;5041515;28;20039;-72
2022/05/19 08:35:11;;;;;;;4.97;1.60;;;35.60;55.60;;;;;;5040602;28;20060;-71
2022/05/19 08:38:16;;;;;;;5.43;1.30;;;37.10;54.90;;;;;;5043253;28;20131;-71
2022/05/19 08:41:30;;;;;;;5.55;1.52;;;36.70;52.70;;;;;;5027051;28;20043;-71
2022/05/19 08:44:48;;;;;;;4.55;1.30;;;38.10;52.80;;;;;;5043888;28;20048;-73
2022/05/19 08:48:01;;;;;;;5.10;1.45;;;37.70;53.80;;;;;;5041315;28;20044;-72
2022/05/19 08:51:07;;;;;;;4.80;1.42;;;36.00;53.00;;;;;;5040865;28;20403;-72
2022/05/19 08:54:16;;;;;;;3.22;1.55;;;31.10;55.60;;;;;;5040733;28;20052;-71
2022/05/19 08:57:25;;;;;;;7.45;1.48;;;33.60;56.60;;;;;;5042389;28;20066;-72
2022/05/19 09:00:38;;;;;;;5.03;1.55;;;32.50;57.00;;;;;;5030350;28;20157;-71
2022/05/19 09:03:57;;;;;;;3.67;1.42;;;34.90;56.40;;;;;;5041835;28;20408;-71
2022/05/19 09:11:10;;;;;;;1.95;1.20;;;39.00;53.70;;;;;;5037678;28;20052;-72
2022/05/19 09:14:20;;;;;;;4.20;1.52;;;36.40;50.70;;;;;;5041749;28;20789;-73
2022/05/19 09:17:35;;;;;;;2.22;1.05;;;38.80;52.10;;;;;;5038023;28;20392;-71
2022/05/19 09:20:53;;;;;;;4.20;1.40;;;39.70;51.10;;;;;;5036787;28;20060;-72
2022/05/19 09:23:57;;;;;;;4.05;1.63;;;38.30;50.20;;;;;;5036402;28;20052;-73
2022/05/19 09:27:01;;;;;;;4.55;1.50;;;35.10;52.80;;;;;;5026637;28;20134;-71
2022/05/19 09:30:27;;;;;;;5.13;1.38;;;36.00;54.00;;;;;;5044896;28;20487;-71
2022/05/19 09:33:41;;;;;;;2.67;1.30;;;39.60;50.90;;;;;;5040325;28;20389;-74
2022/05/19 09:37:01;;;;;;;5.90;1.45;;;39.40;52.40;;;;;;5023937;28;20107;-72
2022/05/19 09:40:12;;;;;;;;;;;37.00;53.70;;;;;;5043628;28;20056;-72
2022/05/19 09:43:26;;;;;;;10.70;1.20;;;38.90;52.30;;;;;;5032135;28;19912;-72
2022/05/19 09:46:43;;;;;;;5.60;1.20;;;39.50;52.30;;;;;;5038382;28;20044;-72
2022/05/19 09:49:53;;;;;;;4.93;1.30;;;42.10;50.40;;;;;;5041932;28;20052;-72
2022/05/19 09:53:06;;;;;;;9.38;2.92;;;41.30;50.20;;;;;;5049844;28;20530;-72
2022/05/19 09:56:13;;;;;;;4.72;1.30;;;40.10;50.10;;;;;;5037150;28;20416;-73
2022/05/19 09:59:33;;;;;;;5.38;1.40;;;35.80;51.60;;;;;;5046363;28;20068;-72
2022/05/19 10:02:46;;;;;;;2.33;1.30;;;37.00;52.50;;;;;;5058040;28;20035;-73
2022/05/19 10:05:54;;;;;;;2.58;1.30;;;37.80;52.80;;;;;;5051515;28;20049;-74
2022/05/19 10:09:13;;;;;;;5.85;1.63;;;34.80;53.30;;;;;;5054262;28;20036;-72
2022/05/19 10:12:24;;;;;;;2.40;1.30;;;35.80;52.80;;;;;;5047476;28;20407;-72
2022/05/19 10:15:43;;;;;;;4.90;1.20;;;35.10;54.80;;;;;;5047014;28;20047;-72
2022/05/19 10:19:07;;;;;;;5.28;1.70;;;37.50;52.80;;;;;;5048573;28;20428;-72
2022/05/19 10:22:56;;;;;;;8.10;1.35;;;36.80;52.50;;;;;;5046603;28;20052;-72
2022/05/19 10:26:24;;;;;;;3.90;1.30;;;38.50;52.80;;;;;;5051534;28;20040;-72
2022/05/19 10:33:22;;;;;;;3.00;1.38;;;38.10;52.40;;;;;;5051380;28;20052;-72
2022/05/19 10:36:33;;;;;;;4.23;1.57;;;37.50;50.80;;;;;;5046684;28;20044;-72
2022/05/19 10:40:08;;;;;;;4.88;1.40;;;39.70;50.60;;;;;;5042697;28;20037;-72
2022/05/19 10:43:13;;;;;;;2.28;1.40;;;36.10;49.50;;;;;;5054653;28;20416;-71
2022/05/19 10:46:22;;;;;;;4.60;1.60;;;35.90;51.60;;;;;;5048019;28;20032;-71
2022/05/19 10:49:51;;;;;;;5.63;1.52;;;38.10;52.70;;;;;;5046217;28;20048;-72
2022/05/19 10:53:08;;;;;;;4.07;1.23;;;39.60;50.80;;;;;;5045909;28;20039;-72
2022/05/19 10:56:18;;;;;;;3.42;1.60;;;33.50;51.30;;;;;;5048365;28;20044;-72
2022/05/19 10:59:33;;;;;;;5.13;1.42;;;34.90;52.40;;;;;;5050510;28;20048;-72
2022/05/19 11:02:48;;;;;;;5.40;1.40;;;37.40;51.20;;;;;;5057636;28;20035;-72
2022/05/19 11:06:08;;;;;;;3.35;1.67;;;36.00;52.30;;;;;;5052693;28;20044;-73
2022/05/19 11:09:30;;;;;;;4.15;1.42;;;33.10;54.00;;;;;;5051911;28;20515;-72
2022/05/19 11:12:59;;;;;;;5.10;1.42;;;33.50;53.90;;;;;;5051110;28;20040;-72
2022/05/19 11:16:18;;;;;;;8.93;1.52;;;37.30;52.50;;;;;;5051919;28;20055;-73
2022/05/19 11:20:01;;;;;;;2.30;1.27;;;39.90;50.70;;;;;;5063606;28;20043;-73
2022/05/19 11:23:48;;;;;;;2.55;1.48;;;35.90;48.90;;;;;;5061474;28;20032;-72
2022/05/19 11:27:15;;;;;;;7.32;1.70;;;37.90;52.20;;;;;;5047579;28;20048;-72
2022/05/19 11:30:24;;;;;;;5.55;1.50;;;40.00;49.40;;;;;;5055317;28;20502;-73
2022/05/19 11:33:36;;;;;;;3.28;1.30;;;38.80;48.70;;;;;;5045175;28;20047;-72
2022/05/19 11:36:52;;;;;;;4.22;1.30;;;36.00;51.90;;;;;;5044666;28;20116;-72
2022/05/19 11:40:11;;;;;;;5.03;1.48;;;35.50;52.30;;;;;;5045079;28;20039;-73
2022/05/19 11:43:35;;;;;;;4.10;1.52;;;36.80;51.30;;;;;;5048601;28;20040;-72
2022/05/19 11:47:06;;;;;;;4.50;1.50;;;37.20;49.40;;;;;;5050623;28;20044;-72
2022/05/19 11:57:14;;;;;;;4.22;1.40;;;34.20;52.70;;;;;;5030355;28;20060;-71
2022/05/19 12:00:32;;;;;;;2.05;1.20;;;32.40;53.60;;;;;;5041162;28;20044;-71
2022/05/19 12:03:56;;;;;;;3.53;1.27;;;34.90;53.50;;;;;;5041015;28;20040;-73
2022/05/19 12:07:15;;;;;;;3.25;1.60;;;35.80;53.00;;;;;;5044572;28;20044;-72
2022/05/19 12:10:30;;;;;;;7.07;1.45;;;36.80;52.80;;;;;;5044464;28;20045;-71
2022/05/19 12:13:36;;;;;;;6.15;1.38;;;35.00;54.70;;;;;;5046308;28;20031;-72
2022/05/19 12:16:59;;;;;;;6.82;1.50;;;35.40;54.60;;;;;;5045945;28;20052;-72
2022/05/19 12:20:35;;;;;;;3.30;1.58;;;33.10;54.80;;;;;;5047067;28;20043;-71
2022/05/19 12:23:42;;;;;;;9.43;1.60;;;32.70;56.50;;;;;;5049883;28;20044;-72
2022/05/19 12:27:13;;;;;;;5.20;1.90;;;32.20;55.20;;;;;;5047443;28;20059;-71
2022/05/19 12:34:02;;;;;;;3.53;1.60;;;34.30;56.80;;;;;;5047435;28;20044;-72
2022/05/19 12:37:13;;;;;;;6.45;1.60;;;33.40;57.00;;;;;;5048086;28;20039;-72
2022/05/19 12:40:27;;;;;;;5.47;2.38;;;31.60;56.80;;;;;;5045101;28;20395;-73
2022/05/19 12:43:43;;;;;;;3.45;1.77;;;30.50;58.80;;;;;;5039862;28;20087;-71
2022/05/19 12:46:57;;;;;;;5.78;2.10;;;30.40;58.70;;;;;;5047702;28;20047;-71
2022/05/19 12:50:02;;;;;;;2.90;1.58;;;31.30;57.40;;;;;;5050502;28;20044;-71
2022/05/19 12:53:41;;;;;;;5.40;1.75;;;32.30;57.90;;;;;;5051093;28;20383;-71
2022/05/19 12:56:46;;;;;;;4.35;1.58;;;32.10;57.70;;;;;;5049840;28;20490;-71
2022/05/19 13:00:03;;;;;;;2.55;1.80;;;33.00;57.40;;;;;;5052620;28;20044;-71
2022/05/19 13:03:17;;;;;;;5.97;1.80;;;33.10;56.30;;;;;;5052551;28;20388;-74
2022/05/19 13:06:24;;;;;;;6.90;1.65;;;32.30;57.00;;;;;;5048708;28;20039;-71
2022/05/19 13:09:31;;;;;;;4.43;1.52;;;31.90;57.90;;;;;;5048941;28;20055;-72
2022/05/19 13:12:59;;;;;;;5.47;1.67;;;30.30;57.60;;;;;;5040513;28;20048;-71
2022/05/19 13:16:14;;;;;;;8.07;1.80;;;30.70;61.20;;;;;;5028174;28;20401;-72
2022/05/19 13:19:20;;;;;;;4.25;1.50;;;31.90;60.70;;;;;;5033833;28;20048;-69
2022/05/19 13:22:29;;;;;;;3.45;1.70;;;32.90;57.50;;;;;;5041750;28;20037;-69
2022/05/19 13:25:42;;;;;;;5.30;1.50;;;32.40;58.20;;;;;;5049671;28;20040;-70
2022/05/19 13:32:23;;;;;;;;;;;32.90;58.90;;;;;;5050988;28;20048;-69
2022/05/19 13:35:27;;;;;;;6.68;2.03;;;30.40;61.20;;;;;;5056835;28;20190;-69
2022/05/19 13:38:32;;;;;;;6.35;2.42;;;29.40;60.70;;;;;;5052421;28;20043;-71
2022/05/19 13:41:47;;;;;;;7.57;1.88;;;29.00;61.10;;;;;;5030078;28;20048;-70
2022/05/19 13:44:53;;;;;;;3.47;1.58;;;29.30;62.20;;;;;;5057232;28;20048;-72
2022/05/19 13:47:58;;;;;;;4.28;1.58;;;30.00;60.20;;;;;;5057015;28;20042;-72
2022/05/19 13:51:22;;;;;;;6.28;1.67;;;29.90;59.90;;;;;;5055400;28;20048;-71
2022/05/19 13:54:42;;;;;;;5.07;1.73;;;30.50;61.30;;;;;;5056967;28;20043;-71
2022/05/19 13:57:50;;;;;;;7.53;1.70;;;29.50;59.30;;;;;;5060225;28;20478;-70
2022/05/19 14:00:55;;;;;;;3.17;1.60;;;30.30;61.00;;;;;;5054055;28;20056;-71
2022/05/19 14:04:04;;;;;;;6.18;1.70;;;31.00;59.00;;;;;;5035170;28;20045;-72
2022/05/19 14:07:11;;;;;;;11.38;1.88;;;29.60;58.80;;;;;;5059547;28;20032;-73
2022/05/19 14:10:21;;;;;;;7.05;1.65;;;28.40;60.80;;;;;;5056007;28;20052;-71
2022/05/19 14:13:32;;;;;;;2.55;1.60;;;28.50;60.00;;;;;;5040992;28;20502;-71
2022/05/19 14:16:37;;;;;;;3.38;1.55;;;29.40;60.10;;;;;;5056850;28;20040;-70
2022/05/19 14:19:42;;;;;;;4.88;1.70;;;30.30;60.80;;;;;;5045756;28;20060;-71
2022/05/19 14:22:49;;;;;;;8.55;1.70;;;31.10;58.80;;;;;;5051132;28;20043;-71
2022/05/19 14:26:05;;;;;;;2.45;1.75;;;30.10;60.30;;;;;;5049941;28;20040;-74
2022/05/19 14:29:23;;;;;;;5.72;1.95;;;29.30;59.10;;;;;;5055987;28;20055;-73
2022/05/19 14:32:42;;;;;;;4.25;1.50;;;29.10;61.50;;;;;;5068593;28;20509;-70
2022/05/19 14:35:54;;;;;;;4.95;1.85;;;29.60;59.00;;;;;;5072355;28;20039;-71
2022/05/19 14:39:05;;;;;;;5.10;1.73;;;30.20;60.40;;;;;;5048100;28;20040;-71
2022/05/19 14:45:48;;;;;;;4.00;1.50;;;29.00;60.70;;;;;;5069367;28;20043;-69
2022/05/19 14:48:59;;;;;;;6.18;2.00;;;29.30;59.20;;;;;;5057058;28;20048;-70
2022/05/19 14:52:04;;;;;;;3.42;1.30;;;29.50;58.90;;;;;;5063761;28;20051;-70
2022/05/19 14:55:16;;;;;;;3.95;1.80;;;29.20;60.60;;;;;;5072825;28;20040;-71
2022/05/19 14:58:23;;;;;;;7.32;1.92;;;29.40;59.50;;;;;;5064867;28;20047;-72
2022/05/19 15:01:31;;;;;;;4.72;1.48;;;29.40;60.40;;;;;;5050105;28;20388;-69
2022/05/19 15:04:35;;;;;;;2.70;2.00;;;29.90;59.90;;;;;;5038201;28;20048;-70
2022/05/19 15:07:48;;;;;;;4.32;1.60;;;30.30;59.90;;;;;;5053044;28;20044;-69
2022/05/19 15:10:52;;;;;;;2.88;1.40;;;30.20;60.10;;;;;;5053112;28;20040;-71
2022/05/19 15:13:58;;;;;;;5.95;1.50;;;30.20;58.80;;;;;;5063087;28;20392;-72
2022/05/19 15:17:02;;;;;;;8.98;1.50;;;29.60;58.70;;;;;;5052455;28;20047;-70
2022/05/19 15:20:09;;;;;;;6.15;1.55;;;29.40;59.20;;;;;;5052578;28;20044;-69
2022/05/19 15:23:15;;;;;;;2.40;1.52;;;29.40;61.60;;;;;;5037418;28;20036;-70
2022/05/19 15:26:19;;;;;;;4.28;1.30;;;29.70;60.40;;;;;;5048260;28;20560;-69
2022/05/19 15:29:24;;;;;;;4.63;1.50;;;30.10;61.00;;;;;;5051467;28;20059;-70
2022/05/19 15:32:29;;;;;;;4.65;1.80;;;29.90;60.30;;;;;;5052369;28;20044;-69
2022/05/19 15:35:33;;;;;;;8.85;1.80;;;29.90;59.80;;;;;;5051829;28;20036;-69
2022/05/19 15:38:38;;;;;;;10.48;2.03;;;28.80;60.30;;;;;;5051202;28;20044;-70
2022/05/19 15:41:43;;;;;;;2.42;1.60;;;28.70;60.50;;;;;;5051624;28;20039;-70
2022/05/19 15:44:49;;;;;;;4.20;1.50;;;28.60;61.90;;;;;;5049551;28;20044;-71
2022/05/19 15:47:55;;;;;;;6.72;2.20;;;28.50;60.80;;;;;;5051117;28;20036;-70
2022/05/19 15:51:00;;;;;;;3.67;1.88;;;28.70;61.80;;;;;;5051145;28;20299;-69
2022/05/19 15:54:04;;;;;;;8.13;1.90;;;28.80;61.50;;;;;;5051029;28;20059;-69
2022/05/19 15:57:09;;;;;;;7.53;1.70;;;29.00;62.70;;;;;;5046852;28;20047;-71
2022/05/19 16:00:15;;;;;;;3.65;1.55;;;28.80;61.40;;;;;;5031606;28;20396;-68
2022/05/19 16:03:22;;;;;;;4.18;1.83;;;28.60;60.90;;;;;;5039567;28;20487;-69
2022/05/19 16:06:28;;;;;;;3.70;1.70;;;28.70;59.90;;;;;;5051129;28;20440;-69
2022/05/19 16:09:32;;;;;;;5.30;1.90;;;28.40;60.50;;;;;;5044111;28;20048;-69
2022/05/19 16:12:37;;;;;;;7.50;1.70;;;28.60;61.40;;;;;;5050200;28;20052;-69
2022/05/19 16:15:43;;;;;;;2.92;1.73;;;28.70;61.20;;;;;;5050382;28;20052;-70
2022/05/19 16:18:47;;;;;;;5.82;2.08;;;28.70;60.40;;;;;;5050125;28;20399;-70
2022/05/19 16:21:52;;;;;;;6.28;2.08;;;28.80;60.80;;;;;;5050802;28;20032;-70
2022/05/19 16:25:07;;;;;;;3.25;1.58;;;28.60;60.90;;;;;;5050207;28;20494;-69
2022/05/19 16:28:13;;;;;;;7.72;1.75;;;28.60;61.10;;;;;;5050280;28;20036;-69
2022/05/19 16:31:16;;;;;;;4.35;1.65;;;28.20;60.60;;;;;;5036470;28;20055;-69
2022/05/19 16:34:20;;;;;;;5.47;1.50;;;28.00;62.50;;;;;;5047692;28;20039;-69
2022/05/19 16:37:32;;;;;;;7.00;2.13;;;28.20;62.70;;;;;;5049507;28;20047;-69
2022/05/19 16:40:37;;;;;;;3.05;1.40;;;28.30;63.10;;;;;;5050477;28;20052;-70
2022/05/19 16:43:40;;;;;;;3.53;1.63;;;28.30;63.00;;;;;;5031393;28;20048;-69
2022/05/19 16:46:45;;;;;;;5.40;1.50;;;28.30;62.60;;;;;;5049706;28;20048;-69
2022/05/19 16:49:49;;;;;;;4.30;1.65;;;28.10;64.70;;;;;;5050785;28;20061;-69
2022/05/19 16:52:53;;;;;;;5.05;1.50;;;27.60;61.90;;;;;;5050255;28;20047;-69
2022/05/19 16:59:20;;;;;;;9.23;4.18;;;27.50;64.10;;;;;;5029995;28;20432;-69
2022/05/19 17:02:25;;;;;;;10.65;5.57;;;27.50;64.60;;;;;;5043828;28;20044;-69
2022/05/19 17:05:31;;;;;;;8.07;4.22;;;27.50;64.70;;;;;;5050156;28;20052;-69